Terminal Aerodrome Forecast
Issued by NWS Albuquerque, NM

Home | Current Version | Previous Version | Text Only | Print | Product List | Glossary On
Versions: 1 2 3 4 5 6 7 8 9 10 11 12
333
FTUS45 KABQ 111720
TAFABQ
TAF
KABQ 111720Z 1118/1218 36007KT P6SM SKC
     FM112000 32006KT P6SM SKC
     FM120200 01006KT P6SM SKC=

USA.gov is the U.S. government's official web portal to all federal, state and local government web resources and services.